sensor_id;sensor_type;location;lat;lon;timestamp;pressure;altitude;pressure_sealevel;temperature
76541;BMP280;65385;55.772;37.658;2023-03-24T00:00:06;98485.56;;;9.26
76541;BMP280;65385;55.772;37.658;2023-03-24T00:01:11;98483.41;;;9.28
76541;BMP280;65385;55.772;37.658;2023-03-24T00:02:11;98477.66;;;9.31
76541;BMP280;65385;55.772;37.658;2023-03-24T00:03:13;98484.97;;;9.29
76541;BMP280;65385;55.772;37.658;2023-03-24T00:04:16;98478.97;;;9.28
76541;BMP280;65385;55.772;37.658;2023-03-24T00:05:19;98476.66;;;9.27
76541;BMP280;65385;55.772;37.658;2023-03-24T00:06:20;98468.09;;;9.26
76541;BMP280;65385;55.772;37.658;2023-03-24T00:07:21;98472.53;;;9.26
76541;BMP280;65385;55.772;37.658;2023-03-24T00:08:23;98478.78;;;9.25
76541;BMP280;65385;55.772;37.658;2023-03-24T00:09:24;98479.56;;;9.25
76541;BMP280;65385;55.772;37.658;2023-03-24T00:10:25;98480.34;;;9.26
76541;BMP280;65385;55.772;37.658;2023-03-24T00:11:29;98473.06;;;9.23
76541;BMP280;65385;55.772;37.658;2023-03-24T00:12:36;98483.50;;;9.23
76541;BMP280;65385;55.772;37.658;2023-03-24T00:13:39;98473.06;;;9.23
76541;BMP280;65385;55.772;37.658;2023-03-24T00:14:40;98474.91;;;9.22
76541;BMP280;65385;55.772;37.658;2023-03-24T00:15:40;98470.72;;;9.21
76541;BMP280;65385;55.772;37.658;2023-03-24T00:16:41;98472.03;;;9.24
76541;BMP280;65385;55.772;37.658;2023-03-24T00:17:42;98469.94;;;9.21
76541;BMP280;65385;55.772;37.658;2023-03-24T00:18:42;98469.16;;;9.20
76541;BMP280;65385;55.772;37.658;2023-03-24T00:19:43;98483.53;;;9.18
76541;BMP280;65385;55.772;37.658;2023-03-24T00:20:47;98471.84;;;9.15
76541;BMP280;65385;55.772;37.658;2023-03-24T00:21:48;98480.22;;;9.12
76541;BMP280;65385;55.772;37.658;2023-03-24T00:22:53;98477.59;;;9.12
76541;BMP280;65385;55.772;37.658;2023-03-24T00:23:58;98468.50;;;9.10
76541;BMP280;65385;55.772;37.658;2023-03-24T00:25:00;98468.50;;;9.10
76541;BMP280;65385;55.772;37.658;2023-03-24T00:26:08;98469.78;;;9.12
76541;BMP280;65385;55.772;37.658;2023-03-24T00:27:12;98463.59;;;9.08
76541;BMP280;65385;55.772;37.658;2023-03-24T00:28:16;98459.44;;;9.07
76541;BMP280;65385;55.772;37.658;2023-03-24T00:29:17;98464.63;;;9.07
76541;BMP280;65385;55.772;37.658;2023-03-24T00:30:19;98445.38;;;9.03
76541;BMP280;65385;55.772;37.658;2023-03-24T00:31:20;98457.13;;;9.01
76541;BMP280;65385;55.772;37.658;2023-03-24T00:32:21;98460.03;;;8.99
76541;BMP280;65385;55.772;37.658;2023-03-24T00:33:22;98456.66;;;8.99
76541;BMP280;65385;55.772;37.658;2023-03-24T00:34:23;98454.03;;;8.99
76541;BMP280;65385;55.772;37.658;2023-03-24T00:35:24;98447.00;;;8.99
76541;BMP280;65385;55.772;37.658;2023-03-24T00:36:25;98445.16;;;9.00
76541;BMP280;65385;55.772;37.658;2023-03-24T00:37:28;98441.78;;;8.99
76541;BMP280;65385;55.772;37.658;2023-03-24T00:38:29;98433.97;;;8.99
76541;BMP280;65385;55.772;37.658;2023-03-24T00:39:30;98447.22;;;9.03
76541;BMP280;65385;55.772;37.658;2023-03-24T00:40:30;98437.06;;;9.01
76541;BMP280;65385;55.772;37.658;2023-03-24T00:41:31;98445.16;;;9.00
76541;BMP280;65385;55.772;37.658;2023-03-24T00:42:33;98440.44;;;9.02
76541;BMP280;65385;55.772;37.658;2023-03-24T00:43:35;98437.06;;;9.01
76541;BMP280;65385;55.772;37.658;2023-03-24T00:44:36;98437.06;;;9.01
76541;BMP280;65385;55.772;37.658;2023-03-24T00:45:37;98431.56;;;9.03
76541;BMP280;65385;55.772;37.658;2023-03-24T00:46:49;98428.44;;;9.01
76541;BMP280;65385;55.772;37.658;2023-03-24T00:47:56;98424.53;;;9.03
76541;BMP280;65385;55.772;37.658;2023-03-24T00:49:01;98412.50;;;9.07
76541;BMP280;65385;55.772;37.658;2023-03-24T00:50:04;98424.97;;;9.10
76541;BMP280;65385;55.772;37.658;2023-03-24T00:51:05;98425.75;;;9.11
76541;BMP280;65385;55.772;37.658;2023-03-24T00:52:15;98416.88;;;9.12
76541;BMP280;65385;55.772;37.658;2023-03-24T00:53:20;98422.09;;;9.12
76541;BMP280;65385;55.772;37.658;2023-03-24T00:54:22;98417.91;;;9.11
76541;BMP280;65385;55.772;37.658;2023-03-24T00:55:27;98417.84;;;9.16
76541;BMP280;65385;55.772;37.658;2023-03-24T00:56:31;98412.66;;;9.16
76541;BMP280;65385;55.772;37.658;2023-03-24T00:57:32;98412.38;;;9.17
76541;BMP280;65385;55.772;37.658;2023-03-24T00:58:36;98410.03;;;9.16
76541;BMP280;65385;55.772;37.658;2023-03-24T00:59:36;98412.66;;;9.16
76541;BMP280;65385;55.772;37.658;2023-03-24T01:00:42;98400.09;;;9.18
76541;BMP280;65385;55.772;37.658;2023-03-24T01:01:43;98414.19;;;9.17
76541;BMP280;65385;55.772;37.658;2023-03-24T01:02:48;98417.09;;;9.15
76541;BMP280;65385;55.772;37.658;2023-03-24T01:03:52;98411.59;;;9.17
76541;BMP280;65385;55.772;37.658;2023-03-24T01:04:54;98411.88;;;9.15
76541;BMP280;65385;55.772;37.658;2023-03-24T01:06:01;98411.09;;;9.15
76541;BMP280;65385;55.772;37.658;2023-03-24T01:07:01;98411.59;;;9.17
76541;BMP280;65385;55.772;37.658;2023-03-24T01:08:03;98417.84;;;9.16
76541;BMP280;65385;55.772;37.658;2023-03-24T01:09:05;98424.13;;;9.15
76541;BMP280;65385;55.772;37.658;2023-03-24T01:10:13;98431.69;;;9.16
76541;BMP280;65385;55.772;37.658;2023-03-24T01:11:14;98434.56;;;9.15
76541;BMP280;65385;55.772;37.658;2023-03-24T01:12:17;98438.22;;;9.14
76541;BMP280;65385;55.772;37.658;2023-03-24T01:13:24;98425.69;;;9.16
76541;BMP280;65385;55.772;37.658;2023-03-24T01:14:25;98426.72;;;9.15
76541;BMP280;65385;55.772;37.658;2023-03-24T01:15:29;98436.59;;;9.18
76541;BMP280;65385;55.772;37.658;2023-03-24T01:16:32;98442.13;;;9.16
76541;BMP280;65385;55.772;37.658;2023-03-24T01:17:33;98436.59;;;9.18
76541;BMP280;65385;55.772;37.658;2023-03-24T01:18:34;98432.38;;;9.22
76541;BMP280;65385;55.772;37.658;2023-03-24T01:19:39;98433.44;;;9.21
76541;BMP280;65385;55.772;37.658;2023-03-24T01:20:42;98430.81;;;9.21
76541;BMP280;65385;55.772;37.658;2023-03-24T01:21:45;98427.16;;;9.22
76541;BMP280;65385;55.772;37.658;2023-03-24T01:22:48;98425.84;;;9.24
76541;BMP280;65385;55.772;37.658;2023-03-24T01:23:49;98425.06;;;9.24
76541;BMP280;65385;55.772;37.658;2023-03-24T01:24:50;98419.84;;;9.24
76541;BMP280;65385;55.772;37.658;2023-03-24T01:25:53;98420.91;;;9.23
76541;BMP280;65385;55.772;37.658;2023-03-24T01:26:53;98411.75;;;9.25
76541;BMP280;65385;55.772;37.658;2023-03-24T01:27:54;98415.13;;;9.26
76541;BMP280;65385;55.772;37.658;2023-03-24T01:28:54;98412.53;;;9.26
76541;BMP280;65385;55.772;37.658;2023-03-24T01:29:59;98414.38;;;9.25
76541;BMP280;65385;55.772;37.658;2023-03-24T01:31:00;98419.28;;;9.27
76541;BMP280;65385;55.772;37.658;2023-03-24T01:32:01;98419.75;;;9.29
76541;BMP280;65385;55.772;37.658;2023-03-24T01:33:02;98412.53;;;9.26
76541;BMP280;65385;55.772;37.658;2023-03-24T01:34:03;98416.19;;;9.25
76541;BMP280;65385;55.772;37.658;2023-03-24T01:35:04;98409.41;;;9.24
76541;BMP280;65385;55.772;37.658;2023-03-24T01:36:06;98404.72;;;9.21
76541;BMP280;65385;55.772;37.658;2023-03-24T01:37:06;98407.06;;;9.22
76541;BMP280;65385;55.772;37.658;2023-03-24T01:38:09;98413.06;;;9.23
76541;BMP280;65385;55.772;37.658;2023-03-24T01:39:10;98401.06;;;9.22
76541;BMP280;65385;55.772;37.658;2023-03-24T01:40:16;98409.16;;;9.20
76541;BMP280;65385;55.772;37.658;2023-03-24T01:41:17;98400.09;;;9.18
76541;BMP280;65385;55.772;37.658;2023-03-24T01:42:21;98410.03;;;9.16
76541;BMP280;65385;55.772;37.658;2023-03-24T01:43:24;98406.66;;;9.15
76541;BMP280;65385;55.772;37.658;2023-03-24T01:44:36;98397.53;;;9.13
76541;BMP280;65385;55.772;37.658;2023-03-24T01:46:38;98402.75;;;9.13
76541;BMP280;65385;55.772;37.658;2023-03-24T01:47:38;98397.53;;;9.13
76541;BMP280;65385;55.772;37.658;2023-03-24T01:49:02;98397.00;;;9.16
76541;BMP280;65385;55.772;37.658;2023-03-24T01:50:04;98396.75;;;9.12
76541;BMP280;65385;55.772;37.658;2023-03-24T01:52:27;98396.28;;;9.10
76541;BMP280;65385;55.772;37.658;2023-03-24T01:53:29;98391.06;;;9.10
76541;BMP280;65385;55.772;37.658;2023-03-24T01:54:37;98394.94;;;9.13
76541;BMP280;65385;55.772;37.658;2023-03-24T01:55:42;98399.66;;;9.11
76541;BMP280;65385;55.772;37.658;2023-03-24T01:56:50;98399.66;;;9.11
76541;BMP280;65385;55.772;37.658;2023-03-24T01:57:55;98390.56;;;9.08
76541;BMP280;65385;55.772;37.658;2023-03-24T01:59:10;98389.78;;;9.08
76541;BMP280;65385;55.772;37.658;2023-03-24T02:00:19;98390.06;;;9.06
76541;BMP280;65385;55.772;37.658;2023-03-24T02:01:40;98389.00;;;9.07
76541;BMP280;65385;55.772;37.658;2023-03-24T02:02:59;98386.69;;;9.06
76541;BMP280;65385;55.772;37.658;2023-03-24T02:04:05;98385.69;;;9.02
76541;BMP280;65385;55.772;37.658;2023-03-24T02:05:09;98384.63;;;9.03
76541;BMP280;65385;55.772;37.658;2023-03-24T02:06:16;98381.53;;;9.01
76541;BMP280;65385;55.772;37.658;2023-03-24T02:08:51;98384.13;;;9.01
76541;BMP280;65385;55.772;37.658;2023-03-24T02:09:51;98382.66;;;8.94
76541;BMP280;65385;55.772;37.658;2023-03-24T02:10:53;98377.69;;;8.93
76541;BMP280;65385;55.772;37.658;2023-03-24T02:11:54;98371.19;;;8.90
76541;BMP280;65385;55.772;37.658;2023-03-24T02:12:55;98373.06;;;8.90
76541;BMP280;65385;55.772;37.658;2023-03-24T02:13:56;98371.19;;;8.90
76541;BMP280;65385;55.772;37.658;2023-03-24T02:14:57;98375.44;;;8.86
76541;BMP280;65385;55.772;37.658;2023-03-24T02:28:44;98361.84;;;8.89
76541;BMP280;65385;55.772;37.658;2023-03-24T02:34:13;98360.38;;;9.02
76541;BMP280;65385;55.772;37.658;2023-03-24T02:35:39;98359.06;;;9.05
76541;BMP280;65385;55.772;37.658;2023-03-24T02:36:56;98349.81;;;9.12
76541;BMP280;65385;55.772;37.658;2023-03-24T02:38:37;98356.59;;;9.13
76541;BMP280;65385;55.772;37.658;2023-03-24T02:41:30;98353.97;;;9.13
76541;BMP280;65385;55.772;37.658;2023-03-24T02:42:41;98345.88;;;9.15
76541;BMP280;65385;55.772;37.658;2023-03-24T02:45:26;98336.13;;;9.20
76541;BMP280;65385;55.772;37.658;2023-03-24T02:46:35;98333.84;;;9.19
76541;BMP280;65385;55.772;37.658;2023-03-24T02:52:21;98330.38;;;9.23
76541;BMP280;65385;55.772;37.658;2023-03-24T02:53:37;98325.94;;;9.24
76541;BMP280;65385;55.772;37.658;2023-03-24T02:56:31;98334.28;;;9.26
76541;BMP280;65385;55.772;37.658;2023-03-24T02:59:39;98329.50;;;9.28
76541;BMP280;65385;55.772;37.658;2023-03-24T03:01:14;98329.75;;;9.31
76541;BMP280;65385;55.772;37.658;2023-03-24T03:02:40;98321.91;;;9.31
76541;BMP280;65385;55.772;37.658;2023-03-24T03:03:47;98322.13;;;9.35
76541;BMP280;65385;55.772;37.658;2023-03-24T03:04:53;98315.53;;;9.37
76541;BMP280;65385;55.772;37.658;2023-03-24T03:05:58;98325.22;;;9.37
76541;BMP280;65385;55.772;37.658;2023-03-24T03:07:03;98321.53;;;9.38
76541;BMP280;65385;55.772;37.658;2023-03-24T03:08:11;98320.22;;;9.40
76541;BMP280;65385;55.772;37.658;2023-03-24T03:09:15;98320.22;;;9.40
76541;BMP280;65385;55.772;37.658;2023-03-24T03:10:20;98318.09;;;9.43
76541;BMP280;65385;55.772;37.658;2023-03-24T03:11:22;98310.34;;;9.37
76541;BMP280;65385;55.772;37.658;2023-03-24T03:12:25;98314.00;;;9.36
76541;BMP280;65385;55.772;37.658;2023-03-24T03:13:33;98311.31;;;9.41
76541;BMP280;65385;55.772;37.658;2023-03-24T03:14:38;98310.06;;;9.39
76541;BMP280;65385;55.772;37.658;2023-03-24T03:15:42;98315.78;;;9.41
76541;BMP280;65385;55.772;37.658;2023-03-24T03:16:54;98307.38;;;9.44
76541;BMP280;65385;55.772;37.658;2023-03-24T03:18:55;98312.09;;;9.42
76541;BMP280;65385;55.772;37.658;2023-03-24T03:19:45;98306.09;;;9.41
76541;BMP280;65385;55.772;37.658;2023-03-24T03:20:51;98308.94;;;9.45
76541;BMP280;65385;55.772;37.658;2023-03-24T03:21:55;98302.16;;;9.44
76541;BMP280;65385;55.772;37.658;2023-03-24T03:23:03;98304.00;;;9.44
76541;BMP280;65385;55.772;37.658;2023-03-24T03:24:17;98306.31;;;9.45
76541;BMP280;65385;55.772;37.658;2023-03-24T03:25:23;98302.44;;;9.43
76541;BMP280;65385;55.772;37.658;2023-03-24T03:26:25;98302.94;;;9.45
76541;BMP280;65385;55.772;37.658;2023-03-24T03:27:34;98302.16;;;9.44
76541;BMP280;65385;55.772;37.658;2023-03-24T03:28:42;98300.88;;;9.41
76541;BMP280;65385;55.772;37.658;2023-03-24T03:29:56;98290.69;;;9.45
76541;BMP280;65385;55.772;37.658;2023-03-24T03:31:02;98285.16;;;9.47
76541;BMP280;65385;55.772;37.658;2023-03-24T03:32:08;98286.50;;;9.44
76541;BMP280;65385;55.772;37.658;2023-03-24T03:33:33;98279.66;;;9.48
76541;BMP280;65385;55.772;37.658;2023-03-24T03:34:48;98276.84;;;9.45
76541;BMP280;65385;55.772;37.658;2023-03-24T03:35:57;98283.91;;;9.44
76541;BMP280;65385;55.772;37.658;2023-03-24T03:37:15;98280.78;;;9.42
76541;BMP280;65385;55.772;37.658;2023-03-24T03:39:33;98287.84;;;9.41
76541;BMP280;65385;55.772;37.658;2023-03-24T03:40:55;98286.31;;;9.40
76541;BMP280;65385;55.772;37.658;2023-03-24T03:42:03;98279.81;;;9.38
76541;BMP280;65385;55.772;37.658;2023-03-24T03:43:06;98280.56;;;9.38
76541;BMP280;65385;55.772;37.658;2023-03-24T03:44:07;98291.78;;;9.39
76541;BMP280;65385;55.772;37.658;2023-03-24T03:45:09;98289.75;;;9.36
76541;BMP280;65385;55.772;37.658;2023-03-24T03:46:10;98292.84;;;9.38
76541;BMP280;65385;55.772;37.658;2023-03-24T03:47:12;98294.19;;;9.35
76541;BMP280;65385;55.772;37.658;2023-03-24T03:48:17;98295.47;;;9.38
76541;BMP280;65385;55.772;37.658;2023-03-24T03:49:18;98290.03;;;9.34
76541;BMP280;65385;55.772;37.658;2023-03-24T03:50:19;98291.13;;;9.33
76541;BMP280;65385;55.772;37.658;2023-03-24T03:51:21;98300.28;;;9.31
76541;BMP280;65385;55.772;37.658;2023-03-24T03:52:28;98301.03;;;9.31
76541;BMP280;65385;55.772;37.658;2023-03-24T03:53:55;98294.63;;;9.24
76541;BMP280;65385;55.772;37.658;2023-03-24T03:54:57;98291.03;;;9.20
76541;BMP280;65385;55.772;37.658;2023-03-24T03:55:58;98298.38;;;9.18
76541;BMP280;65385;55.772;37.658;2023-03-24T03:57:00;98292.44;;;9.12
76541;BMP280;65385;55.772;37.658;2023-03-24T03:58:05;98293.78;;;9.10
76541;BMP280;65385;55.772;37.658;2023-03-24T03:59:31;98297.81;;;9.02
76541;BMP280;65385;55.772;37.658;2023-03-24T04:00:40;98302.81;;;8.99
76541;BMP280;65385;55.772;37.658;2023-03-24T04:03:50;98290.88;;;8.92
76541;BMP280;65385;55.772;37.658;2023-03-24T04:06:53;98287.88;;;8.85
76541;BMP280;65385;55.772;37.658;2023-03-24T04:08:21;98297.31;;;8.81
76541;BMP280;65385;55.772;37.658;2023-03-24T04:09:59;98301.53;;;8.77
76541;BMP280;65385;55.772;37.658;2023-03-24T04:12:25;98296.88;;;8.74
76541;BMP280;65385;55.772;37.658;2023-03-24T04:18:28;98298.13;;;8.58
76541;BMP280;65385;55.772;37.658;2023-03-24T04:24:29;98296.88;;;8.51
76541;BMP280;65385;55.772;37.658;2023-03-24T04:25:47;98292.81;;;8.44
76541;BMP280;65385;55.772;37.658;2023-03-24T04:27:17;98286.56;;;8.40
76541;BMP280;65385;55.772;37.658;2023-03-24T04:28:24;98280.41;;;8.36
76541;BMP280;65385;55.772;37.658;2023-03-24T04:30:49;98280.94;;;8.33
76541;BMP280;65385;55.772;37.658;2023-03-24T04:32:03;98285.34;;;8.33
76541;BMP280;65385;55.772;37.658;2023-03-24T04:33:12;98278.09;;;8.30
76541;BMP280;65385;55.772;37.658;2023-03-24T04:34:27;98277.06;;;8.31
76541;BMP280;65385;55.772;37.658;2023-03-24T04:35:45;98275.56;;;8.25
76541;BMP280;65385;55.772;37.658;2023-03-24T04:37:05;98279.44;;;8.27
76541;BMP280;65385;55.772;37.658;2023-03-24T04:38:27;98273.72;;;8.25
76541;BMP280;65385;55.772;37.658;2023-03-24T04:39:45;98280.00;;;8.24
76541;BMP280;65385;55.772;37.658;2023-03-24T04:40:51;98277.66;;;8.23
76541;BMP280;65385;55.772;37.658;2023-03-24T04:41:56;98277.94;;;8.21
76541;BMP280;65385;55.772;37.658;2023-03-24T04:43:03;98282.38;;;8.21
76541;BMP280;65385;55.772;37.658;2023-03-24T04:44:05;98276.97;;;8.17
76541;BMP280;65385;55.772;37.658;2023-03-24T04:45:15;98276.19;;;8.17
76541;BMP280;65385;55.772;37.658;2023-03-24T04:46:54;98275.69;;;8.15
76541;BMP280;65385;55.772;37.658;2023-03-24T04:47:59;98277.00;;;8.12
76541;BMP280;65385;55.772;37.658;2023-03-24T04:49:09;98267.13;;;8.09
76541;BMP280;65385;55.772;37.658;2023-03-24T04:50:12;98272.81;;;8.11
76541;BMP280;65385;55.772;37.658;2023-03-24T04:51:16;98273.41;;;8.08
76541;BMP280;65385;55.772;37.658;2023-03-24T04:52:38;98275.25;;;8.08
76541;BMP280;65385;55.772;37.658;2023-03-24T04:53:39;98278.09;;;8.06
76541;BMP280;65385;55.772;37.658;2023-03-24T04:54:40;98272.91;;;8.06
76541;BMP280;65385;55.772;37.658;2023-03-24T04:56:57;98262.75;;;8.05
76541;BMP280;65385;55.772;37.658;2023-03-24T04:58:03;98268.47;;;8.07
76541;BMP280;65385;55.772;37.658;2023-03-24T04:59:04;98272.13;;;8.06
76541;BMP280;65385;55.772;37.658;2023-03-24T05:00:07;98265.34;;;8.05
76541;BMP280;65385;55.772;37.658;2023-03-24T05:01:08;98268.22;;;8.08
76541;BMP280;65385;55.772;37.658;2023-03-24T05:02:10;98274.16;;;8.09
76541;BMP280;65385;55.772;37.658;2023-03-24T05:03:30;98270.03;;;8.08
76541;BMP280;65385;55.772;37.658;2023-03-24T05:04:31;98262.28;;;8.02
76541;BMP280;65385;55.772;37.658;2023-03-24T05:05:48;98273.16;;;8.05
76541;BMP280;65385;55.772;37.658;2023-03-24T05:06:49;98275.00;;;8.04
76541;BMP280;65385;55.772;37.658;2023-03-24T05:07:53;98266.97;;;8.00
76541;BMP280;65385;55.772;37.658;2023-03-24T05:08:56;98273.22;;;7.99
76541;BMP280;65385;55.772;37.658;2023-03-24T05:10:01;98273.72;;;8.01
76541;BMP280;65385;55.772;37.658;2023-03-24T05:11:04;98269.06;;;7.98
76541;BMP280;65385;55.772;37.658;2023-03-24T05:12:06;98277.38;;;8.00
76541;BMP280;65385;55.772;37.658;2023-03-24T05:13:21;98274.25;;;7.98
76541;BMP280;65385;55.772;37.658;2023-03-24T05:14:25;98275.34;;;7.97
76541;BMP280;65385;55.772;37.658;2023-03-24T05:15:26;98275.34;;;7.97
76541;BMP280;65385;55.772;37.658;2023-03-24T05:16:34;98271.16;;;7.96
76541;BMP280;65385;55.772;37.658;2023-03-24T05:17:35;98267.03;;;7.95
76541;BMP280;65385;55.772;37.658;2023-03-24T05:18:36;98270.69;;;7.94
76541;BMP280;65385;55.772;37.658;2023-03-24T05:19:37;98266.25;;;7.95
76541;BMP280;65385;55.772;37.658;2023-03-24T05:20:37;98278.50;;;7.94
76541;BMP280;65385;55.772;37.658;2023-03-24T05:21:47;98277.72;;;7.94
76541;BMP280;65385;55.772;37.658;2023-03-24T05:22:48;98275.59;;;7.96
76541;BMP280;65385;55.772;37.658;2023-03-24T05:23:49;98279.78;;;7.92
76541;BMP280;65385;55.772;37.658;2023-03-24T05:24:49;98280.31;;;7.94
76541;BMP280;65385;55.772;37.658;2023-03-24T05:25:50;98275.88;;;7.94
76541;BMP280;65385;55.772;37.658;2023-03-24T05:26:53;98275.09;;;7.94
76541;BMP280;65385;55.772;37.658;2023-03-24T05:27:54;98278.50;;;7.94
76541;BMP280;65385;55.772;37.658;2023-03-24T05:28:58;98278.50;;;7.94
76541;BMP280;65385;55.772;37.658;2023-03-24T05:29:59;98281.09;;;7.94
76541;BMP280;65385;55.772;37.658;2023-03-24T05:31:04;98273.03;;;7.91
76541;BMP280;65385;55.772;37.658;2023-03-24T05:32:29;98280.06;;;7.90
76541;BMP280;65385;55.772;37.658;2023-03-24T05:33:31;98285.00;;;7.92
76541;BMP280;65385;55.772;37.658;2023-03-24T05:34:32;98277.97;;;7.92
76541;BMP280;65385;55.772;37.658;2023-03-24T05:35:40;98274.84;;;7.90
76541;BMP280;65385;55.772;37.658;2023-03-24T05:36:41;98275.38;;;7.92
76541;BMP280;65385;55.772;37.658;2023-03-24T05:37:42;98273.81;;;7.91
76541;BMP280;65385;55.772;37.658;2023-03-24T05:38:43;98281.34;;;7.93
76541;BMP280;65385;55.772;37.658;2023-03-24T05:39:43;98275.38;;;7.92
76541;BMP280;65385;55.772;37.658;2023-03-24T05:41:00;98281.09;;;7.94
76541;BMP280;65385;55.772;37.658;2023-03-24T05:42:06;98271.72;;;7.93
76541;BMP280;65385;55.772;37.658;2023-03-24T05:43:06;98275.09;;;7.94
76541;BMP280;65385;55.772;37.658;2023-03-24T05:44:13;98275.59;;;7.96
76541;BMP280;65385;55.772;37.658;2023-03-24T05:45:14;98274.53;;;7.97
76541;BMP280;65385;55.772;37.658;2023-03-24T05:46:15;98271.66;;;7.98
76541;BMP280;65385;55.772;37.658;2023-03-24T05:47:17;98269.81;;;7.99
76541;BMP280;65385;55.772;37.658;2023-03-24T05:48:19;98267.75;;;8.01
76541;BMP280;65385;55.772;37.658;2023-03-24T05:49:35;98275.28;;;8.02
76541;BMP280;65385;55.772;37.658;2023-03-24T05:50:36;98272.69;;;8.02
76541;BMP280;65385;55.772;37.658;2023-03-24T05:51:37;98270.59;;;7.99
76541;BMP280;65385;55.772;37.658;2023-03-24T05:52:40;98277.59;;;8.04
76541;BMP280;65385;55.772;37.658;2023-03-24T05:53:59;98269.81;;;7.99
76541;BMP280;65385;55.772;37.658;2023-03-24T05:55:05;98268.22;;;8.03
76541;BMP280;65385;55.772;37.658;2023-03-24T05:56:07;98271.59;;;8.03
76541;BMP280;65385;55.772;37.658;2023-03-24T05:57:31;98267.47;;;8.02
76541;BMP280;65385;55.772;37.658;2023-03-24T05:58:52;98269.56;;;8.00
76541;BMP280;65385;55.772;37.658;2023-03-24T05:59:53;98266.97;;;8.00
76541;BMP280;65385;55.772;37.658;2023-03-24T06:01:12;98270.06;;;8.02
76541;BMP280;65385;55.772;37.658;2023-03-24T06:02:14;98274.22;;;8.03
76541;BMP280;65385;55.772;37.658;2023-03-24T06:03:37;98266.69;;;8.02
76541;BMP280;65385;55.772;37.658;2023-03-24T06:04:45;98272.38;;;8.04
76541;BMP280;65385;55.772;37.658;2023-03-24T06:05:53;98262.75;;;8.05
76541;BMP280;65385;55.772;37.658;2023-03-24T06:06:54;98270.31;;;8.06
76541;BMP280;65385;55.772;37.658;2023-03-24T06:07:58;98262.75;;;8.05
76541;BMP280;65385;55.772;37.658;2023-03-24T06:09:01;98271.84;;;8.07
76541;BMP280;65385;55.772;37.658;2023-03-24T06:10:04;98268.22;;;8.08
76541;BMP280;65385;55.772;37.658;2023-03-24T06:11:14;98267.44;;;8.08
76541;BMP280;65385;55.772;37.658;2023-03-24T06:12:24;98266.34;;;8.09
76541;BMP280;65385;55.772;37.658;2023-03-24T06:13:36;98259.31;;;8.09
76541;BMP280;65385;55.772;37.658;2023-03-24T06:14:37;98267.91;;;8.10
76541;BMP280;65385;55.772;37.658;2023-03-24T06:15:43;98265.88;;;8.07
76541;BMP280;65385;55.772;37.658;2023-03-24T06:17:21;98264.56;;;8.04
76541;BMP280;65385;55.772;37.658;2023-03-24T06:18:26;98261.50;;;8.02
76541;BMP280;65385;55.772;37.658;2023-03-24T06:19:28;98270.56;;;8.05
76541;BMP280;65385;55.772;37.658;2023-03-24T06:20:48;98270.06;;;8.02
76541;BMP280;65385;55.772;37.658;2023-03-24T06:21:58;98259.16;;;8.00
76541;BMP280;65385;55.772;37.658;2023-03-24T06:23:05;98265.63;;;8.03
76541;BMP280;65385;55.772;37.658;2023-03-24T06:24:33;98269.78;;;8.04
76541;BMP280;65385;55.772;37.658;2023-03-24T06:25:38;98260.72;;;8.01
76541;BMP280;65385;55.772;37.658;2023-03-24T06:26:56;98259.38;;;8.04
76541;BMP280;65385;55.772;37.658;2023-03-24T06:28:01;98262.75;;;8.05
76541;BMP280;65385;55.772;37.658;2023-03-24T06:29:05;98266.13;;;8.05
76541;BMP280;65385;55.772;37.658;2023-03-24T06:30:11;98266.91;;;8.06
76541;BMP280;65385;55.772;37.658;2023-03-24T06:31:12;98269.00;;;8.03
76541;BMP280;65385;55.772;37.658;2023-03-24T06:32:18;98261.19;;;8.03
76541;BMP280;65385;55.772;37.658;2023-03-24T06:33:19;98263.53;;;8.05
76541;BMP280;65385;55.772;37.658;2023-03-24T06:34:22;98271.06;;;8.07
76541;BMP280;65385;55.772;37.658;2023-03-24T06:35:37;98267.44;;;8.08
76541;BMP280;65385;55.772;37.658;2023-03-24T06:36:41;98262.41;;;8.11
76541;BMP280;65385;55.772;37.658;2023-03-24T06:37:43;98262.72;;;8.10
76541;BMP280;65385;55.772;37.658;2023-03-24T06:38:47;98262.41;;;8.11
76541;BMP280;65385;55.772;37.658;2023-03-24T06:39:53;98263.69;;;8.14
76541;BMP280;65385;55.772;37.658;2023-03-24T06:41:01;98262.66;;;8.15
76541;BMP280;65385;55.772;37.658;2023-03-24T06:42:03;98255.66;;;8.10
76541;BMP280;65385;55.772;37.658;2023-03-24T06:43:03;98261.88;;;8.14
76541;BMP280;65385;55.772;37.658;2023-03-24T06:44:05;98268.38;;;8.17
76541;BMP280;65385;55.772;37.658;2023-03-24T06:45:07;98260.56;;;8.17
76541;BMP280;65385;55.772;37.658;2023-03-24T06:46:08;98259.78;;;8.16
76541;BMP280;65385;55.772;37.658;2023-03-24T06:47:12;98267.31;;;8.18
76541;BMP280;65385;55.772;37.658;2023-03-24T06:48:13;98269.34;;;8.21
76541;BMP280;65385;55.772;37.658;2023-03-24T06:49:14;98264.13;;;8.21
76541;BMP280;65385;55.772;37.658;2023-03-24T06:50:15;98263.63;;;8.19
76541;BMP280;65385;55.772;37.658;2023-03-24T06:51:17;98259.97;;;8.20
76541;BMP280;65385;55.772;37.658;2023-03-24T06:52:19;98256.59;;;8.19
76541;BMP280;65385;55.772;37.658;2023-03-24T06:53:21;98258.94;;;8.21
76541;BMP280;65385;55.772;37.658;2023-03-24T06:54:22;98265.69;;;8.22
76541;BMP280;65385;55.772;37.658;2023-03-24T06:55:22;98258.66;;;8.22
76541;BMP280;65385;55.772;37.658;2023-03-24T06:56:25;98258.41;;;8.24
76541;BMP280;65385;55.772;37.658;2023-03-24T06:57:30;98259.19;;;8.24
76541;BMP280;65385;55.772;37.658;2023-03-24T06:59:03;98244.81;;;8.27
76541;BMP280;65385;55.772;37.658;2023-03-24T07:00:07;98252.91;;;8.25
76541;BMP280;65385;55.772;37.658;2023-03-24T07:01:14;98256.00;;;8.27
76541;BMP280;65385;55.772;37.658;2023-03-24T07:02:34;98252.63;;;8.27
76541;BMP280;65385;55.772;37.658;2023-03-24T07:03:36;98250.81;;;8.27
76541;BMP280;65385;55.772;37.658;2023-03-24T07:04:59;98251.84;;;8.26
76541;BMP280;65385;55.772;37.658;2023-03-24T07:06:11;98260.72;;;8.25
76541;BMP280;65385;55.772;37.658;2023-03-24T07:07:12;98257.31;;;8.25
76541;BMP280;65385;55.772;37.658;2023-03-24T07:08:14;98248.75;;;8.24
76541;BMP280;65385;55.772;37.658;2023-03-24T07:09:19;98253.97;;;8.24
76541;BMP280;65385;55.772;37.658;2023-03-24T07:10:20;98256.56;;;8.24
76541;BMP280;65385;55.772;37.658;2023-03-24T07:11:22;98253.97;;;8.24
76541;BMP280;65385;55.772;37.658;2023-03-24T07:12:33;98251.13;;;8.21
76541;BMP280;65385;55.772;37.658;2023-03-24T07:13:35;98254.72;;;8.25